Manbij, Syria
Current Conditions -  °F | °C
As of 8:20 PM on Thursday 27 Nov 2014 (Local Time) from LTAJ Reporting Station
Clear Clear  
Wind Chill: 45°   Ceiling: Unl
Heat Index: 45°   Visibility: 6mi
Dew Point: 41°   Wind: 0mph
Humidity: 87%   Direction: NA
Pressure: 30.06"   Gusts: 14mph
Location:  36.54°N, 37.96°E
Report Text: LTAJ 271720Z 00000G12KT CAVOK 07/05 Q1018 NOSIG
Loading
Personal Weather Stations






























Interactive Weather Map New forecast layout! Learn more

10-Day Weather Forecast

Advertisements
Track Severe Weather on mobile